Time;durP1;ratioP1;P1;durP2;ratioP2;P2;SDS_P1;SDS_P2;PMS_P1;PMS_P2;Temp;Humidity;BMP_temperature;BMP_pressure;BME280_temperature;BME280_humidity;BME280_pressure;Samples;Min_cycle;Max_cycle;Signal;HPM_P1;HPM_P2
2022/07/07 00:01:02;;;;;;;;;;;;;;;22.89;41.18;100126.34;4341118;33;20392;-81
2022/07/07 00:03:29;;;;;;;;;;;;;;;22.90;39.86;100122.78;4341448;32;20476;-82
2022/07/07 00:05:57;;;;;;;;;;;;;;;22.94;40.52;100119.16;4341063;32;19975;-83
2022/07/07 00:08:24;;;;;;;;;;;;;;;22.78;40.55;100120.50;4349334;32;20568;-82
2022/07/07 00:10:51;;;;;;;;;;;;;;;22.72;41.14;100122.44;4341546;32;20393;-82
2022/07/07 00:13:17;;;;;;;;;;;;;;;22.44;42.26;100122.37;4340829;32;20031;-82
2022/07/07 00:15:46;;;;;;;;;;;;;;;22.50;41.50;100129.25;4339707;33;20047;-82
2022/07/07 00:18:13;;;;;;;;;;;;;;;22.44;41.54;100129.41;4340914;32;20006;-82
2022/07/07 00:20:41;;;;;;;;;;;;;;;22.55;41.95;100121.19;4310080;32;20324;-83
2022/07/07 00:23:07;;;;;;;;;;;;;;;22.61;41.74;100127.16;4336644;32;19995;-83
2022/07/07 00:25:34;;;;;;;;;;;;;;;22.59;41.56;100125.47;4332248;32;19988;-83
2022/07/07 00:28:01;;;;;;;;;;;;;;;22.37;41.88;100122.59;4326202;33;19995;-83
2022/07/07 00:30:28;;;;;;;;;;;;;;;22.49;41.34;100117.84;4326494;32;20346;-82
2022/07/07 00:32:55;;;;;;;;;;;;;;;22.24;42.70;100117.66;4355183;32;20030;-82
2022/07/07 00:35:22;;;;;;;;;;;;;;;22.21;42.78;100115.09;4328419;32;19984;-82
2022/07/07 00:37:49;;;;;;;;;;;;;;;22.24;42.65;100116.78;4326442;33;20444;-81
2022/07/07 00:40:16;;;;;;;;;;;;;;;22.27;41.65;100112.28;4326068;33;20007;-82
2022/07/07 00:42:43;;;;;;;;;;;;;;;22.23;42.41;100110.63;4327645;32;19999;-82
2022/07/07 00:45:11;;;;;;;;;;;;;;;22.20;42.53;100115.97;4336031;32;20071;-81
2022/07/07 00:47:40;;;;;;;;;;;;;;;22.20;41.92;100115.97;4340125;32;20678;-83
2022/07/07 00:50:10;;;;;;;;;;;;;;;22.09;42.27;100123.31;4344026;32;20009;-82
2022/07/07 00:52:38;;;;;;;;;;;;;;;22.08;41.88;100121.56;4334276;32;19991;-82
2022/07/07 00:55:05;;;;;;;;;;;;;;;22.12;42.41;100117.94;4345590;32;20049;-82
2022/07/07 00:57:32;;;;;;;;;;;;;;;22.31;40.90;100115.72;4339472;33;19983;-82
2022/07/07 01:00:00;;;;;;;;;;;;;;;22.25;41.26;100126.41;4347707;32;20022;-83
2022/07/07 01:02:29;;;;;;;;;;;;;;;22.18;41.63;100123.09;4341941;32;20309;-82
2022/07/07 01:05:01;;;;;;;;;;;;;;;21.98;42.42;100120.06;4349219;32;19987;-83
2022/07/07 01:07:28;;;;;;;;;;;;;;;22.05;41.39;100132.22;4350060;32;19987;-82
2022/07/07 01:09:59;;;;;;;;;;;;;;;22.16;42.08;100129.31;4340956;32;20454;-82
2022/07/07 01:12:26;;;;;;;;;;;;;;;22.09;42.77;100128.56;4327325;33;20003;-83
2022/07/07 01:14:53;;;;;;;;;;;;;;;21.88;42.92;100123.84;4346160;32;20003;-82
2022/07/07 01:17:20;;;;;;;;;;;;;;;21.95;42.22;100125.41;4341147;33;19991;-83
2022/07/07 01:19:47;;;;;;;;;;;;;;;21.96;41.96;100121.91;4348619;32;20001;-82
2022/07/07 01:22:14;;;;;;;;;;;;;;;21.97;42.23;100128.87;4339222;32;19979;-82
2022/07/07 01:24:41;;;;;;;;;;;;;;;22.02;42.63;100121.75;4326409;33;20474;-82
2022/07/07 01:27:11;;;;;;;;;;;;;;;21.96;42.37;100121.91;4342311;32;20042;-83
2022/07/07 01:29:39;;;;;;;;;;;;;;;21.77;43.02;100122.37;4346234;32;20031;-83
2022/07/07 01:32:08;;;;;;;;;;;;;;;21.92;43.37;100123.75;4340704;32;20011;-82
2022/07/07 01:34:35;;;;;;;;;;;;;;;21.67;43.57;100118.25;4339438;33;19987;-82
2022/07/07 01:37:02;;;;;;;;;;;;;;;21.71;43.79;100122.50;4347847;32;19991;-82
2022/07/07 01:39:29;;;;;;;;;;;;;;;21.72;43.54;100121.59;4341634;32;19980;-83
2022/07/07 01:41:56;;;;;;;;;;;;;;;21.43;44.05;100121.47;4341139;32;20035;-82
2022/07/07 01:44:23;;;;;;;;;;;;;;;21.40;44.38;100126.81;4349479;32;19987;-82
2022/07/07 01:46:50;;;;;;;;;;;;;;;21.44;44.28;100124.06;4340683;32;20047;-83
2022/07/07 01:49:17;;;;;;;;;;;;;;;21.30;44.93;100126.97;4340447;32;20676;-83
2022/07/07 01:51:44;;;;;;;;;;;;;;;21.32;44.44;100125.19;4340807;33;20793;-82
2022/07/07 01:54:12;;;;;;;;;;;;;;;21.42;43.88;100130.28;4340333;32;20102;-83
2022/07/07 01:56:38;;;;;;;;;;;;;;;21.39;44.04;100135.63;4326669;33;20364;-82
2022/07/07 01:59:05;;;;;;;;;;;;;;;21.18;44.74;100126.41;4348952;32;20042;-83
2022/07/07 02:01:32;;;;;;;;;;;;;;;21.20;45.36;100130.72;4340684;32;19995;-82
2022/07/07 02:04:00;;;;;;;;;;;;;;;21.29;44.56;100132.28;4340384;32;19997;-82
2022/07/07 02:06:28;;;;;;;;;;;;;;;21.12;45.13;100132.66;4326723;32;20319;-82
2022/07/07 02:08:54;;;;;;;;;;;;;;;20.93;45.73;100128.69;4350215;32;19996;-82
2022/07/07 02:11:21;;;;;;;;;;;;;;;21.08;45.56;100131.00;4340539;32;20034;-83
2022/07/07 02:13:49;;;;;;;;;;;;;;;20.97;46.14;100127.75;4352552;32;19984;-83
2022/07/07 02:16:17;;;;;;;;;;;;;;;21.00;45.64;100112.75;4347708;32;20339;-82
2022/07/07 02:18:46;;;;;;;;;;;;;;;20.85;46.20;100132.37;4345023;32;19991;-82
2022/07/07 02:21:13;;;;;;;;;;;;;;;20.98;46.11;100134.75;4339058;32;19982;-82
2022/07/07 02:23:43;;;;;;;;;;;;;;;20.93;46.23;100121.69;4348184;32;20005;-82
2022/07/07 02:26:11;;;;;;;;;;;;;;;20.86;46.45;100128.84;4350167;32;20026;-82
2022/07/07 02:28:40;;;;;;;;;;;;;;;20.86;46.41;100131.47;4331101;33;20030;-83
2022/07/07 02:31:07;;;;;;;;;;;;;;;20.75;46.69;100133.47;4339655;32;20001;-82
2022/07/07 02:33:34;;;;;;;;;;;;;;;20.78;46.54;100136.03;4344439;32;20337;-83
2022/07/07 02:36:03;;;;;;;;;;;;;;;20.83;46.03;100136.78;4343851;32;19994;-83
2022/07/07 02:38:30;;;;;;;;;;;;;;;20.79;46.29;100135.13;4338889;33;19999;-83
2022/07/07 02:40:57;;;;;;;;;;;;;;;20.78;45.91;100138.66;4347782;32;20376;-82
2022/07/07 02:43:24;;;;;;;;;;;;;;;20.09;47.91;100136.47;4341555;32;19980;-83
2022/07/07 02:45:51;;;;;;;;;;;;;;;20.61;46.35;100135.50;4347421;32;20325;-83
2022/07/07 02:48:19;;;;;;;;;;;;;;;20.55;46.81;100146.16;4327200;32;19983;-83
2022/07/07 02:50:46;;;;;;;;;;;;;;;20.42;47.35;100149.00;4340516;32;20288;-84
2022/07/07 02:53:13;;;;;;;;;;;;;;;20.41;47.20;100149.88;4339864;32;20031;-83
2022/07/07 02:55:41;;;;;;;;;;;;;;;20.56;47.28;100153.16;4340336;32;20669;-82
2022/07/07 02:58:08;;;;;;;;;;;;;;;20.57;46.51;100141.72;4340243;32;19999;-82
2022/07/07 03:00:36;;;;;;;;;;;;;;;20.41;46.89;100142.00;4339752;32;20353;-83
2022/07/07 03:03:04;;;;;;;;;;;;;;;20.49;47.03;100151.53;4339965;32;19984;-82
2022/07/07 03:05:31;;;;;;;;;;;;;;;20.52;47.10;100144.47;4341808;32;20246;-81
2022/07/07 03:07:58;;;;;;;;;;;;;;;20.06;48.14;100152.31;4346198;32;20713;-82
2022/07/07 03:10:25;;;;;;;;;;;;;;;20.24;47.33;100146.72;4343168;32;19991;-82
2022/07/07 03:12:52;;;;;;;;;;;;;;;20.36;47.41;100149.13;4340209;33;19984;-81
2022/07/07 03:15:19;;;;;;;;;;;;;;;20.35;47.55;100143.88;4340031;32;19995;-82
2022/07/07 03:17:46;;;;;;;;;;;;;;;20.35;47.40;100144.75;4341655;32;19992;-81
2022/07/07 03:20:14;;;;;;;;;;;;;;;20.47;46.76;100141.03;4344243;32;19991;-82
2022/07/07 03:22:41;;;;;;;;;;;;;;;20.32;47.68;100143.94;4322370;32;20034;-80
2022/07/07 03:25:09;;;;;;;;;;;;;;;20.12;48.17;100147.81;4347156;32;19983;-80
2022/07/07 03:27:36;;;;;;;;;;;;;;;20.26;47.90;100144.94;4348564;32;19994;-81
2022/07/07 03:30:03;;;;;;;;;;;;;;;20.41;46.91;100139.38;4355196;32;19987;-81
2022/07/07 03:32:31;;;;;;;;;;;;;;;20.30;47.81;100141.34;4354734;32;20001;-81
2022/07/07 03:34:57;;;;;;;;;;;;;;;20.23;47.69;100139.75;4353828;32;20356;-80
2022/07/07 03:37:24;;;;;;;;;;;;;;;20.31;47.49;100142.22;4349301;32;19998;-81
2022/07/07 03:39:51;;;;;;;;;;;;;;;20.15;47.53;100146.88;4355513;32;20009;-81
2022/07/07 03:42:18;;;;;;;;;;;;;;;20.34;48.11;100143.03;4354027;32;20066;-81
2022/07/07 03:44:45;;;;;;;;;;;;;;;20.49;47.21;100146.25;4348533;32;20054;-81
2022/07/07 03:47:13;;;;;;;;;;;;;;;20.35;47.84;100149.13;4348230;32;19999;-81
2022/07/07 03:49:47;;;;;;;;;;;;;;;20.34;48.14;100147.41;4351545;32;19987;-81
2022/07/07 03:52:14;;;;;;;;;;;;;;;20.34;47.69;100143.03;4349684;32;20416;-81
2022/07/07 03:54:41;;;;;;;;;;;;;;;20.49;47.39;100148.91;4356690;32;20049;-81
2022/07/07 03:57:08;;;;;;;;;;;;;;;20.64;47.70;100141.59;4355915;32;19995;-81
2022/07/07 03:59:35;;;;;;;;;;;;;;;20.68;47.52;100145.03;4329033;32;19999;-81
2022/07/07 04:02:02;;;;;;;;;;;;;;;20.74;47.50;100146.66;4350288;32;20356;-81
2022/07/07 04:04:29;;;;;;;;;;;;;;;20.52;47.63;100143.62;4352327;32;19971;-81
2022/07/07 04:06:56;;;;;;;;;;;;;;;20.46;48.94;100139.28;4352318;32;19995;-82
2022/07/07 04:09:23;;;;;;;;;;;;;;;20.80;47.33;100144.75;4355020;32;20009;-82
2022/07/07 04:11:50;;;;;;;;;;;;;;;20.77;47.98;100136.94;4354221;32;20396;-82
2022/07/07 04:14:16;;;;;;;;;;;;;;;20.88;47.84;100142.84;4354243;32;20055;-81
2022/07/07 04:16:43;;;;;;;;;;;;;;;20.90;47.34;100141.06;4344111;32;20322;-81
2022/07/07 04:19:10;;;;;;;;;;;;;;;20.80;47.61;100136.84;4352203;32;19980;-81
2022/07/07 04:21:37;;;;;;;;;;;;;;;20.90;47.39;100137.56;4349402;32;19992;-81
2022/07/07 04:24:04;;;;;;;;;;;;;;;20.90;47.95;100133.16;4354084;32;19983;-81
2022/07/07 04:26:31;;;;;;;;;;;;;;;20.92;47.08;100134.88;4354022;32;19983;-80
2022/07/07 04:28:58;;;;;;;;;;;;;;;21.03;47.24;100127.63;4351205;32;19972;-82
2022/07/07 04:31:25;;;;;;;;;;;;;;;21.08;47.23;100128.37;4346486;32;19987;-85
2022/07/07 04:33:52;;;;;;;;;;;;;;;21.12;47.19;100127.38;4353742;32;20296;-86
2022/07/07 04:36:19;;;;;;;;;;;;;;;21.24;47.12;100116.59;4349041;32;20002;-83
2022/07/07 04:38:46;;;;;;;;;;;;;;;21.37;47.10;100123.31;4351507;32;20051;-84
2022/07/07 04:41:13;;;;;;;;;;;;;;;21.40;45.83;100126.81;4341772;32;20009;-87
2022/07/07 04:43:39;;;;;;;;;;;;;;;21.40;46.77;100126.81;4354255;32;19986;-85
2022/07/07 04:46:06;;;;;;;;;;;;;;;21.50;46.16;100129.16;4350872;32;19987;-84
2022/07/07 04:48:33;;;;;;;;;;;;;;;21.54;45.66;100124.72;4341197;32;19991;-82
2022/07/07 04:51:00;;;;;;;;;;;;;;;21.63;46.05;100128.87;4340707;32;19994;-84
2022/07/07 04:53:27;;;;;;;;;;;;;;;21.62;47.00;100133.28;4338991;33;20002;-82
2022/07/07 04:55:54;;;;;;;;;;;;;;;21.61;46.96;100126.28;4344126;32;19992;-82
2022/07/07 04:58:21;;;;;;;;;;;;;;;21.71;46.38;100122.50;4355164;32;19979;-84
2022/07/07 05:00:48;;;;;;;;;;;;;;;21.75;45.96;100123.31;4341556;32;20001;-83
2022/07/07 05:03:15;;;;;;;;;;;;;;;21.74;46.48;100127.72;4355767;32;20324;-85
2022/07/07 05:05:42;;;;;;;;;;;;;;;21.91;47.22;100129.03;4352680;32;20006;-84
2022/07/07 05:08:09;;;;;;;;;;;;;;;22.02;47.06;100132.28;4346902;32;19999;-84
2022/07/07 05:10:36;;;;;;;;;;;;;;;22.01;46.89;100130.53;4340632;32;19991;-84
2022/07/07 05:13:02;;;;;;;;;;;;;;;22.11;46.94;100126.75;4353083;32;20026;-85
2022/07/07 05:15:29;;;;;;;;;;;;;;;22.22;46.71;100121.22;4340916;32;19983;-86
2022/07/07 05:17:56;;;;;;;;;;;;;;;22.41;46.37;100129.50;4340057;32;19997;-84
2022/07/07 05:20:25;;;;;;;;;;;;;;;22.45;46.31;100125.88;4347564;32;20005;-84
2022/07/07 05:22:51;;;;;;;;;;;;;;;22.49;46.29;100127.50;4352438;32;19990;-84
2022/07/07 05:25:19;;;;;;;;;;;;;;;22.54;46.03;100133.53;4346698;32;20067;-83
2022/07/07 05:27:45;;;;;;;;;;;;;;;22.70;43.58;100126.88;4347173;32;20404;-84
2022/07/07 05:30:17;;;;;;;;;;;;;;;22.73;44.50;100126.81;4342352;32;20000;-84
2022/07/07 05:32:44;;;;;;;;;;;;;;;22.74;45.06;100120.59;4341967;32;20000;-83
2022/07/07 05:35:11;;;;;;;;;;;;;;;22.79;44.16;100124.91;4339138;33;20449;-83
2022/07/07 05:37:40;;;;;;;;;;;;;;;22.59;42.89;100129.00;4339228;33;20055;-83
2022/07/07 05:43:10;;;;;;;;;;;;;;;22.84;43.05;100133.53;4351986;32;20015;-83
2022/07/07 05:45:37;;;;;;;;;;;;;;;22.86;43.68;100134.38;4345977;32;20003;-83
2022/07/07 05:48:05;;;;;;;;;;;;;;;23.15;43.36;100134.38;4350386;32;19994;-83
2022/07/07 05:50:34;;;;;;;;;;;;;;;22.90;42.63;100133.34;4354926;32;19987;-83
2022/07/07 05:53:02;;;;;;;;;;;;;;;23.27;42.41;100132.28;4354856;32;19976;-83
2022/07/07 05:55:28;;;;;;;;;;;;;;;23.27;42.35;100129.63;4346844;32;20003;-84
2022/07/07 06:00:49;;;;;;;;;;;;;;;23.51;41.14;100131.47;4323062;33;20003;-81
2022/07/07 06:06:12;;;;;;;;;;;;;;;23.69;41.17;100135.34;4345047;27;19999;-84
2022/07/07 06:08:40;;;;;;;;;;;;;;;23.62;40.32;100129.34;4337949;33;19991;-83
2022/07/07 06:11:07;;;;;;;;;;;;;;;23.78;39.31;100134.16;4350543;32;20048;-82
2022/07/07 06:13:34;;;;;;;;;;;;;;;23.71;39.20;100127.34;4350602;32;19990;-83
2022/07/07 06:16:01;;;;;;;;;;;;;;;24.12;39.79;100129.44;4339984;32;19999;-82
2022/07/07 06:18:28;;;;;;;;;;;;;;;24.46;39.78;100127.41;4339951;32;19987;-82
2022/07/07 06:20:55;;;;;;;;;;;;;;;24.85;38.04;100118.87;4339938;32;20321;-82
2022/07/07 06:23:22;;;;;;;;;;;;;;;25.13;38.04;100124.00;4340179;32;19979;-81
2022/07/07 06:25:49;;;;;;;;;;;;;;;25.40;38.10;100122.91;4351155;32;20290;-81
2022/07/07 06:28:16;;;;;;;;;;;;;;;25.65;36.60;100127.19;4349791;32;19995;-81
2022/07/07 06:30:43;;;;;;;;;;;;;;;25.71;35.01;100127.78;4339129;32;20003;-82
2022/07/07 06:33:10;;;;;;;;;;;;;;;26.26;34.86;100124.63;4339159;32;20005;-82
2022/07/07 06:35:40;;;;;;;;;;;;;;;26.11;33.87;100130.59;4339212;33;20006;-82
2022/07/07 06:38:07;;;;;;;;;;;;;;;26.41;33.95;100129.22;4336009;33;19987;-82
2022/07/07 06:40:34;;;;;;;;;;;;;;;26.94;33.33;100132.19;4343365;32;20008;-83
2022/07/07 06:43:01;;;;;;;;;;;;;;;27.30;32.42;100126.94;4339022;32;19998;-83
2022/07/07 06:45:29;;;;;;;;;;;;;;;27.57;32.13;100127.41;4342346;32;19984;-83
2022/07/07 06:47:56;;;;;;;;;;;;;;;27.44;31.74;100126.25;4331881;33;20325;-82
2022/07/07 06:50:24;;;;;;;;;;;;;;;27.79;33.50;100127.19;4337249;33;20026;-84
2022/07/07 06:52:51;;;;;;;;;;;;;;;28.10;31.49;100126.50;4350623;32;20010;-83
2022/07/07 06:55:18;;;;;;;;;;;;;;;28.11;31.90;100122.91;4339579;32;20051;-84
2022/07/07 06:57:45;;;;;;;;;;;;;;;28.35;30.58;100119.91;4338960;33;19987;-84
2022/07/07 07:00:13;;;;;;;;;;;;;;;28.32;31.60;100120.06;4339766;32;20585;-84
2022/07/07 07:02:41;;;;;;;;;;;;;;;28.02;30.55;100123.38;4340055;32;19996;-84
2022/07/07 07:05:08;;;;;;;;;;;;;;;28.37;30.03;100116.22;4335282;33;20000;-84
2022/07/07 07:07:35;;;;;;;;;;;;;;;28.53;30.56;100124.28;4324559;33;20309;-84
2022/07/07 07:13:26;;;;;;;;;;;;;;;28.65;31.16;100123.59;4321065;33;20034;-87
2022/07/07 07:15:53;;;;;;;;;;;;;;;28.80;31.06;100121.03;4323759;33;19996;-84
2022/07/07 07:18:20;;;;;;;;;;;;;;;28.72;30.65;100119.66;4324632;33;20337;-83
2022/07/07 07:20:47;;;;;;;;;;;;;;;28.37;31.74;100123.34;4324663;33;19996;-84
2022/07/07 07:23:14;;;;;;;;;;;;;;;28.53;32.67;100118.94;4324806;33;20026;-84
2022/07/07 07:25:41;;;;;;;;;;;;;;;28.51;32.28;100110.16;4310529;33;19984;-84
2022/07/07 07:28:09;;;;;;;;;;;;;;;28.59;31.25;100107.97;4324206;33;20047;-84
2022/07/07 07:30:36;;;;;;;;;;;;;;;28.62;29.95;100113.12;4311236;33;20017;-83
2022/07/07 07:33:03;;;;;;;;;;;;;;;28.91;30.37;100098.19;4324487;33;20608;-84
2022/07/07 07:35:30;;;;;;;;;;;;;;;28.76;31.13;100103.50;4323988;33;20348;-83
2022/07/07 07:37:57;;;;;;;;;;;;;;;28.86;31.33;100104.72;4324644;33;20022;-84
2022/07/07 07:40:24;;;;;;;;;;;;;;;28.85;31.26;100108.34;4322179;33;20000;-85
2022/07/07 07:42:51;;;;;;;;;;;;;;;28.91;29.01;100097.34;4324183;33;20023;-85
2022/07/07 07:45:17;;;;;;;;;;;;;;;28.90;30.43;100106.25;4324297;33;20812;-84
2022/07/07 07:47:45;;;;;;;;;;;;;;;29.25;29.58;100106.13;4310820;33;19983;-85
2022/07/07 07:50:15;;;;;;;;;;;;;;;29.41;29.76;100102.47;4335210;33;19999;-85
2022/07/07 07:52:42;;;;;;;;;;;;;;;29.38;27.81;100113.31;4323140;33;19994;-85
2022/07/07 07:55:10;;;;;;;;;;;;;;;28.96;29.76;100106.78;4324733;33;20051;-84
2022/07/07 07:57:37;;;;;;;;;;;;;;;29.57;29.68;100102.44;4335678;33;20010;-85
2022/07/07 08:00:08;;;;;;;;;;;;;;;29.45;30.37;100113.81;4311291;33;20003;-85
2022/07/07 08:02:37;;;;;;;;;;;;;;;29.48;29.59;100110.12;4324156;33;20332;-85
2022/07/07 08:05:05;;;;;;;;;;;;;;;29.38;28.90;100112.47;4324659;33;19992;-85
2022/07/07 08:07:32;;;;;;;;;;;;;;;29.68;27.60;100109.88;4298151;33;19981;-85
2022/07/07 08:10:00;;;;;;;;;;;;;;;29.85;28.77;100108.84;4309790;33;19980;-84
2022/07/07 08:12:27;;;;;;;;;;;;;;;29.58;28.92;100109.50;4310321;33;20011;-84
2022/07/07 08:14:53;;;;;;;;;;;;;;;29.54;31.30;100113.28;4310008;33;20003;-83
2022/07/07 08:17:20;;;;;;;;;;;;;;;29.59;29.65;100105.03;4310799;33;20044;-84
2022/07/07 08:19:47;;;;;;;;;;;;;;;29.41;29.85;100101.63;4311711;33;20007;-84
2022/07/07 08:22:14;;;;;;;;;;;;;;;29.57;30.31;100097.09;4335382;33;19991;-83
2022/07/07 08:24:41;;;;;;;;;;;;;;;29.41;28.95;100101.63;4317504;32;19984;-83
2022/07/07 08:27:10;;;;;;;;;;;;;;;29.16;30.29;100103.03;4312069;33;19988;-83
2022/07/07 08:29:38;;;;;;;;;;;;;;;29.04;29.68;100103.72;4312532;32;19988;-83
2022/07/07 08:32:06;;;;;;;;;;;;;;;29.16;30.68;100103.03;4312029;33;20051;-83
2022/07/07 08:34:33;;;;;;;;;;;;;;;28.72;31.17;100109.00;4334969;33;20023;-84
2022/07/07 08:37:07;;;;;;;;;;;;;;;29.11;29.82;100099.75;4312550;33;20375;-84
2022/07/07 08:39:34;;;;;;;;;;;;;;;29.27;29.93;100101.56;4312215;33;20004;-84
2022/07/07 08:42:01;;;;;;;;;;;;;;;29.02;29.92;100099.44;4311896;33;20374;-85
2022/07/07 08:44:28;;;;;;;;;;;;;;;28.82;30.76;100103.19;4311994;33;20036;-83
2022/07/07 08:46:55;;;;;;;;;;;;;;;28.57;33.36;100103.66;4311638;33;21237;-84
2022/07/07 08:49:21;;;;;;;;;;;;;;;28.64;33.55;100100.56;4334961;33;20536;-84
2022/07/07 08:51:48;;;;;;;;;;;;;;;28.39;33.90;100102.81;4311739;32;20048;-83
2022/07/07 08:54:19;;;;;;;;;;;;;;;28.38;30.26;100093.09;4311945;33;19999;-83
2022/07/07 08:56:45;;;;;;;;;;;;;;;28.51;30.53;100086.19;4312458;33;20002;-84
2022/07/07 08:59:17;;;;;;;;;;;;;;;28.65;32.84;100088.09;4311918;33;19988;-84
2022/07/07 09:01:53;;;;;;;;;;;;;;;28.47;32.70;100092.66;4294608;32;20032;-83
2022/07/07 09:04:20;;;;;;;;;;;;;;;28.32;33.01;100090.75;4319797;33;20059;-84
2022/07/07 09:07:00;;;;;;;;;;;;;;;28.43;31.40;100085.75;4297139;33;19980;-84
2022/07/07 09:09:28;;;;;;;;;;;;;;;28.37;32.49;100080.75;4320235;33;20047;-84
2022/07/07 09:12:01;;;;;;;;;;;;;;;28.10;31.60;100083.91;4282999;33;20084;-83
2022/07/07 09:14:40;;;;;;;;;;;;;;;28.26;32.59;100082.16;4306995;33;19988;-84
2022/07/07 09:17:25;;;;;;;;;;;;;;;28.19;30.79;100083.44;4311477;33;19999;-84
2022/07/07 09:20:12;;;;;;;;;;;;;;;28.47;29.75;100082.00;4311638;33;19988;-84
2022/07/07 09:22:50;;;;;;;;;;;;;;;28.47;30.73;100079.31;4311122;33;19972;-84
2022/07/07 09:25:24;;;;;;;;;;;;;;;27.94;32.33;100083.84;4321888;33;19988;-84
2022/07/07 09:27:59;;;;;;;;;;;;;;;28.42;31.97;100078.69;4311575;33;19985;-84
2022/07/07 09:30:35;;;;;;;;;;;;;;;28.54;31.22;100078.03;4311419;33;20456;-84
2022/07/07 09:33:04;;;;;;;;;;;;;;;28.64;30.09;100089.91;4310285;32;20357;-84
2022/07/07 09:38:22;;;;;;;;;;;;;;;28.68;29.76;100091.44;4331527;33;20449;-84
2022/07/07 09:40:50;;;;;;;;;;;;;;;28.84;31.54;100095.94;4312050;33;19984;-83
2022/07/07 09:43:17;;;;;;;;;;;;;;;28.38;30.32;100087.78;4312054;33;20471;-83
2022/07/07 09:46:08;;;;;;;;;;;;;;;28.77;30.56;100094.56;4311690;33;20063;-83
2022/07/07 09:48:35;;;;;;;;;;;;;;;28.97;30.97;100094.31;4312775;33;19984;-83
2022/07/07 09:51:15;;;;;;;;;;;;;;;28.99;30.11;100084.44;4306169;32;20058;-83
2022/07/07 09:53:55;;;;;;;;;;;;;;;28.27;30.13;100091.87;4297300;33;19989;-84
2022/07/07 09:56:26;;;;;;;;;;;;;;;28.25;30.80;100093.75;4296929;33;19980;-83
2022/07/07 09:58:53;;;;;;;;;;;;;;;29.03;28.21;100080.66;4296905;33;19996;-84
2022/07/07 10:01:24;;;;;;;;;;;;;;;28.74;27.81;100079.59;4297288;33;20067;-84
2022/07/07 10:03:52;;;;;;;;;;;;;;;28.98;29.67;100072.91;4296831;33;20025;-84
2022/07/07 10:06:19;;;;;;;;;;;;;;;29.17;28.56;100080.75;4319498;33;20007;-83
2022/07/07 10:08:46;;;;;;;;;;;;;;;29.17;30.03;100080.75;4297185;33;20008;-83
2022/07/07 10:11:13;;;;;;;;;;;;;;;28.40;28.14;100075.25;4319863;33;20529;-83
2022/07/07 10:13:43;;;;;;;;;;;;;;;28.46;29.12;100077.59;4323982;33;19999;-83
2022/07/07 10:16:10;;;;;;;;;;;;;;;29.28;28.73;100079.28;4311466;33;19997;-83
2022/07/07 10:18:37;;;;;;;;;;;;;;;28.92;27.38;100073.25;4311291;33;19992;-81
2022/07/07 10:21:04;;;;;;;;;;;;;;;29.18;29.05;100069.12;4334676;33;19989;-82
2022/07/07 10:23:32;;;;;;;;;;;;;;;29.22;27.62;100074.28;4311434;33;19999;-83
2022/07/07 10:26:04;;;;;;;;;;;;;;;29.37;26.87;100065.41;4328822;32;20004;-82
2022/07/07 10:28:51;;;;;;;;;;;;;;;29.50;26.84;100063.75;4313695;32;20007;-83
2022/07/07 10:31:27;;;;;;;;;;;;;;;29.34;26.69;100062.91;4308628;33;20325;-83
2022/07/07 10:33:55;;;;;;;;;;;;;;;28.80;29.28;100073.06;4334469;33;20364;-82
2022/07/07 10:36:22;;;;;;;;;;;;;;;29.40;28.66;100067.91;4334244;33;19981;-83
2022/07/07 10:38:50;;;;;;;;;;;;;;;29.35;29.53;100069.97;4311544;33;19976;-82
2022/07/07 10:41:21;;;;;;;;;;;;;;;28.96;29.88;100073.94;4308810;32;20004;-83
2022/07/07 10:43:48;;;;;;;;;;;;;;;29.05;29.84;100070.78;4311143;32;19976;-83
2022/07/07 10:46:14;;;;;;;;;;;;;;;29.20;28.96;100075.25;4334290;33;19984;-84
2022/07/07 10:48:42;;;;;;;;;;;;;;;29.35;29.44;100064.63;4311537;33;19992;-83
2022/07/07 10:51:16;;;;;;;;;;;;;;;29.37;30.41;100060.06;4311058;33;20031;-83
2022/07/07 10:53:55;;;;;;;;;;;;;;;29.19;30.57;100054.84;4311294;32;20014;-83
2022/07/07 10:56:24;;;;;;;;;;;;;;;29.73;28.50;100064.22;4311055;33;20015;-83
2022/07/07 10:58:52;;;;;;;;;;;;;;;29.45;30.27;100055.13;4311156;33;20051;-84
2022/07/07 11:01:19;;;;;;;;;;;;;;;29.89;28.49;100052.50;4311132;33;20779;-83
2022/07/07 11:03:46;;;;;;;;;;;;;;;29.66;31.41;100063.72;4311716;32;20385;-83
2022/07/07 11:06:12;;;;;;;;;;;;;;;29.06;29.14;100048.50;4316487;33;19992;-84
2022/07/07 11:08:40;;;;;;;;;;;;;;;29.47;30.50;100058.59;4321938;33;19992;-83
2022/07/07 11:11:07;;;;;;;;;;;;;;;28.90;29.76;100050.28;4310753;33;19980;-84
2022/07/07 11:13:35;;;;;;;;;;;;;;;29.45;29.55;100044.47;4333924;33;19980;-84
2022/07/07 11:16:34;;;;;;;;;;;;;;;28.12;30.37;100055.41;4333624;33;20047;-83
2022/07/07 11:19:04;;;;;;;;;;;;;;;28.50;30.36;100041.88;4301363;33;20826;-84
2022/07/07 11:21:39;;;;;;;;;;;;;;;28.19;30.65;100043.50;4310917;33;19991;-84
2022/07/07 11:24:13;;;;;;;;;;;;;;;28.52;31.07;100045.28;4310689;33;20473;-89
2022/07/07 11:26:40;;;;;;;;;;;;;;;28.28;30.43;100037.69;4315122;33;19996;-86
2022/07/07 11:29:07;;;;;;;;;;;;;;;28.09;31.45;100039.59;4321647;33;20002;-87
2022/07/07 11:31:34;;;;;;;;;;;;;;;28.11;31.09;100032.41;4309161;33;20002;-86
2022/07/07 11:34:01;;;;;;;;;;;;;;;27.63;31.98;100036.63;4328389;32;19999;-85
2022/07/07 11:36:28;;;;;;;;;;;;;;;28.27;31.82;100033.31;4324552;33;19976;-86
2022/07/07 11:38:56;;;;;;;;;;;;;;;28.98;29.46;100030.25;4323135;33;20314;-84
2022/07/07 11:41:42;;;;;;;;;;;;;;;28.82;29.94;100033.91;4323193;33;20341;-85
2022/07/07 11:44:19;;;;;;;;;;;;;;;29.67;28.11;100022.75;4324038;33;20463;-88
2022/07/07 11:46:52;;;;;;;;;;;;;;;29.04;29.72;100021.09;4324662;33;20056;-85
2022/07/07 11:49:19;;;;;;;;;;;;;;;28.43;30.61;100013.84;4323173;33;19995;-86
2022/07/07 11:51:46;;;;;;;;;;;;;;;28.52;30.47;100016.00;4324622;33;19983;-86
2022/07/07 11:54:13;;;;;;;;;;;;;;;28.27;31.94;100001.34;4298305;33;858986;-84
2022/07/07 11:56:40;;;;;;;;;;;;;;;28.29;31.88;100009.25;4326650;33;20340;-85
2022/07/07 11:59:07;;;;;;;;;;;;;;;28.38;31.94;99997.25;4326298;33;19991;-86
2022/07/07 12:01:37;;;;;;;;;;;;;;;28.88;32.28;100002.44;4324500;33;19996;-85
2022/07/07 12:04:17;;;;;;;;;;;;;;;28.88;30.92;99994.44;4312299;33;20314;-85
2022/07/07 12:06:44;;;;;;;;;;;;;;;29.38;31.52;99990.62;4325089;33;20031;-84
2022/07/07 12:09:12;;;;;;;;;;;;;;;29.86;30.02;99985.13;4326143;32;20042;-85
2022/07/07 12:11:39;;;;;;;;;;;;;;;29.51;30.56;99979.22;4326473;33;20000;-86
2022/07/07 12:14:07;;;;;;;;;;;;;;;30.08;30.87;99985.50;4342995;32;19981;-85
2022/07/07 12:16:47;;;;;;;;;;;;;;;30.22;29.96;99976.66;4330050;32;19996;-85
2022/07/07 12:19:14;;;;;;;;;;;;;;;29.61;30.12;99970.63;4325992;33;19991;-85
2022/07/07 12:21:49;;;;;;;;;;;;;;;29.87;30.47;99969.03;4326344;33;19984;-86
2022/07/07 12:24:17;;;;;;;;;;;;;;;29.98;28.88;99976.34;4324191;33;20047;-85
2022/07/07 12:26:49;;;;;;;;;;;;;;;29.58;30.66;99976.13;4324853;33;20543;-86
2022/07/07 12:29:21;;;;;;;;;;;;;;;28.24;31.37;99958.94;4310987;33;20034;-87
2022/07/07 12:31:49;;;;;;;;;;;;;;;28.96;31.96;99962.00;4324716;33;20004;-86
2022/07/07 12:34:17;;;;;;;;;;;;;;;29.56;30.29;99956.66;4324032;33;20031;-86
2022/07/07 12:36:44;;;;;;;;;;;;;;;29.54;30.15;99952.38;4325789;33;19995;-86
2022/07/07 12:39:19;;;;;;;;;;;;;;;29.56;30.52;99947.81;4322901;33;19997;-86
2022/07/07 12:41:48;;;;;;;;;;;;;;;29.62;30.12;99939.47;4325864;33;19991;-86
2022/07/07 12:44:29;;;;;;;;;;;;;;;28.83;33.27;99939.69;4323933;33;19984;-85
2022/07/07 12:47:16;;;;;;;;;;;;;;;29.14;32.18;99931.63;4322947;33;20003;-88
2022/07/07 12:49:54;;;;;;;;;;;;;;;28.95;31.81;99928.31;4323959;33;20553;-86
2022/07/07 12:52:21;;;;;;;;;;;;;;;29.65;33.08;99932.13;4324185;33;20343;-86
2022/07/07 12:54:48;;;;;;;;;;;;;;;29.93;30.58;99927.75;4323784;32;20377;-85
2022/07/07 12:57:15;;;;;;;;;;;;;;;29.85;30.33;99925.53;4335202;32;19992;-86
2022/07/07 12:59:44;;;;;;;;;;;;;;;29.95;30.22;99931.16;4325237;33;20100;-87